Cedar City, Utah Weather observations

Data are for observation ending at time listed.
 Day   Time    Ave.   Ave.  Ave.  Vector   Max.   Stn.    Total    Solar   Ave.  
  of    of     Air    Rel.  Wind   Wind    Wind   Baro.  Precip.   Rad.    Soil  
Year   Day     Temp.  Hum.  Speed  Dir.    Gust   Pres.                    Temp. 
2016   (MST)    F      %     mph   deg.    mph     mb.     in.     W/m2     F   
------------------------------------------------------------------------------
 119    0:00   38.7    92    1.0   191      1.8   811.5    0.00       0    49.8
 119    0:10   38.3    92    0.3   200      0.9   811.5    0.00       0    49.8
 119    0:20   37.9    92    1.0   197      2.9   811.4    0.00       0    49.7
 119    0:30   37.6    92    1.2   186      3.3   811.3    0.00       0    49.7
 119    0:40   37.4    92    0.7   192      1.8   811.2    0.00       0    49.6
 119    0:50   37.2    92    0.7   225      2.0   811.2    0.00       0    49.6
 119    1:00   37.1    92    0.7   216      1.5   811.1    0.00       0    49.5
 119    1:10   36.9    92    0.5   235      1.2   811.0    0.00       0    49.5
 119    1:20   36.5    92    0.2   116      1.2   811.0    0.00       0    49.4
 119    1:30   36.5    92    0.7   330      1.9   810.9    0.00       0    49.4
 119    1:40   36.6    92    0.3   218      1.5   810.7    0.00       0    49.3
 119    1:50   36.6    92    1.7   139      2.9   810.7    0.00       0    49.3
 119    2:00   36.8    92    1.5    62      3.4   810.6    0.00       0    49.2
 119    2:10   36.9    92    1.1   187      1.8   810.5    0.00       0    49.2
 119    2:20   36.4    93    0.4   162      1.4   810.3    0.00       0    49.1
 119    2:30   36.5    93    1.5   170      3.2   810.2    0.00       0    49.0
 119    2:40   36.1    93    0.3   202      1.1   810.1    0.00       0    49.0
 119    2:50   36.1    93    0.7   123      2.6   810.1    0.00       0    49.0
 119    3:00   35.9    93    1.2   238      1.9   810.2    0.00       0    48.9
 119    3:10   35.7    93    1.6   205      2.9   810.1    0.00       0    48.9
 119    3:20   35.7    93    0.8   150      1.5   810.2    0.00       0    48.8
 119    3:30   35.9    93    0.6   210      1.7   810.2    0.00       0    48.8
 119    3:40   36.1    93    0.3    39      1.6   810.1    0.00       0    48.7
 119    3:50   36.4    93    0.2   161      1.1   810.2    0.00       0    48.7
 119    4:00   36.6    93    0.4   228      1.2   810.1    0.00       0    48.6
 119    4:10   36.6    93    0.7    32      2.7   810.1    0.00       0    48.6
 119    4:20   36.3    93    1.1   316      2.2   810.1    0.00       0    48.5
 119    4:30   36.0    93    1.9   341      3.6   810.1    0.00       0    48.5
 119    4:40   36.0    93    0.2   321      1.2   810.1    0.00       0    48.5
 119    4:50   36.2    94    0.6   227      1.8   810.2    0.00       0    48.4
 119    5:00   36.4    94    0.7   175      2.2   810.2    0.00       0    48.4
 119    5:10   36.4    94    0.7   184      1.3   810.2    0.00       0    48.3
 119    5:20   36.6    94    0.6   170      2.3   810.2    0.00       0    48.3
 119    5:30   36.8    94    0.9   126      2.8   810.2    0.00       0    48.3
 119    5:40   37.1    93    0.2   195      1.3   810.2    0.00       2    48.2
 119    5:50   37.2    93    0.7   161      1.5   810.2    0.00       4    48.2
 119    6:00   37.4    93    2.3   122      3.7   810.5    0.00       6    48.2
 119    6:10   37.6    93    0.8   111      2.6   810.6    0.00       3    48.1
 119    6:20   37.7    92    2.0    55      5.4   810.5    0.00       8    48.1
 119    6:30   38.0    88    5.3    66     10.0   810.4    0.00      13    48.1
 119    6:40   38.3    84    4.6    83     12.2   810.4    0.01      25    48.1
 119    6:50   38.4    84    2.0   315      4.6   810.5    0.00      55    48.0
 119    7:00   38.5    88    2.0   307      4.2   810.4    0.00     108    48.0
 119    7:10   39.0    89    1.9   250      4.1   810.5    0.00     223    48.0
 119    7:20   39.6    88    2.0   268      4.5   810.6    0.00     204    48.0
 119    7:30   40.9    87    2.7   225      4.7   810.7    0.00     318    48.0
 119    7:40   40.8    85    3.0   276      5.6   810.7    0.00     270    48.0
 119    7:50   40.5    86    1.1   244      4.2   810.8    0.00     155    48.0
 119    8:00   40.4    85    1.4   317      2.9   810.8    0.00      91    48.0
 119    8:10   39.9    87    1.4    26      3.5   810.8    0.00     120    48.0
 119    8:20   39.6    88    2.4    31      5.0   810.8    0.00     122    48.1
 119    8:30   39.7    88    1.0   102      2.8   810.9    0.00     100    48.1
 119    8:40   40.5    88    1.5   133      3.4   811.0    0.00     176    48.2
 119    8:50   41.1    84    1.4   345      3.0   811.0    0.00     284    48.2
 119    9:00   42.3    82    1.4   235      2.8   811.1    0.00     332    48.3
 119    9:10   43.0    78    1.8    22      3.5   811.1    0.00     410    48.3
 119    9:20   44.3    75    1.7   273      3.6   811.1    0.00     753    48.4
 119    9:30   45.7    72    2.1   275      6.7   811.2    0.00     375    48.4
 119    9:40   44.7    72    1.2   280      4.8   811.4    0.00     186    48.4
 119    9:50   44.2    74    1.5    36      4.6   811.4    0.00     183    48.4
 119   10:00   44.4    73    1.5   278      3.1   811.5    0.00     276    48.5
 119   10:10   44.4    70    1.8    61      4.1   811.5    0.00     245    48.6
 119   10:20   44.3    72    3.5    64      6.4   811.5    0.00     342    48.6
 119   10:30   44.8    70    2.7    51      5.3   811.6    0.00     417    48.7
 119   10:40   47.1    66    1.8   215      6.6   811.6    0.00     531    48.7
 119   10:50   47.7    64    1.0   160      4.5   811.7    0.00     515    48.8
 119   11:00   48.4    62    3.0   316      8.0   811.7    0.00     553    48.9
 119   11:10   47.3    63    2.7   344      5.6   811.8    0.00     440    48.9
 119   11:20   48.0    60    2.3   338      5.5   811.8    0.00     357    49.0
 119   11:30   48.1    56    3.6   276      7.2   811.8    0.00     378    49.1
 119   11:40   48.2    55    2.2   265      4.8   811.8    0.00     301    49.1
 119   11:50   48.1    54    4.5   290      9.0   811.8    0.00     317    49.2
 119   12:00   47.7    55    3.7   264     10.2   811.8    0.00     240    49.3
 119   12:10   48.2    54    3.5   249      8.6   811.7    0.00     283    49.3
 119   12:20   48.8    52    3.9   246      7.6   811.7    0.00     423    49.4
 119   12:30   51.0    50    4.2   227      9.6   811.6    0.00     977    49.5
 119   12:40   52.3    46    5.1   226      9.6   811.7    0.00    1063    49.6
 119   12:50   51.2    46    4.1   202      9.5   811.7    0.00     421    49.6
 119   13:00   50.7    48    4.5   228     10.3   811.6    0.00     380    49.6
 119   13:10   50.7    47    4.5   224     10.4   811.6    0.00     331    49.7
 119   13:20   50.0    48    5.9   216     13.0   811.6    0.00     231    49.8
 119   13:30   49.8    47    3.7   200      8.9   811.7    0.00     218    49.8
 119   13:40   49.8    46    5.0   228      9.1   811.7    0.00     192    49.9
 119   13:50   49.1    53    4.5   274      8.0   811.9    0.00     103    50.0
 119   14:00   48.4    54    3.6   280      8.6   811.9    0.00      45    50.0
 119   14:10   47.2    61    1.8    56      4.5   812.0    0.04      37    50.0
 119   14:20   43.5    71    4.9    88      9.3   812.2    0.04      32    50.1
 119   14:30   40.3    79    4.7    90     10.6   812.3    0.08      37    50.0
 119   14:40   39.8    84    4.7    69      9.8   812.4    0.04      50    50.0
 119   14:50   39.3    86    6.4   104     11.1   812.4    0.01      44    49.9
 119   15:00   40.4    84    4.5   118      9.9   812.7    0.00      27    49.8
 119   15:10   40.3    83    6.5    90     12.6   812.8    0.01      24    49.8
 119   15:20   39.3    85    7.0    93     11.5   812.9    0.02      36    49.7
 119   15:30   38.8    87    6.0    93      9.7   813.0    0.01      41    49.6
 119   15:40   38.7    88    6.3    82     10.7   813.0    0.00      49    49.6
 119   15:50   38.5    87    7.4    82     12.3   813.0    0.01      67    49.6
 119   16:00   38.1    88    7.2    90     11.5   813.1    0.00      61    49.5
 119   16:10   37.8    88    7.5    98     13.8   813.1    0.01      74    49.5
 119   16:20   38.0    89    7.2    90     12.2   813.1    0.00     129    49.5
 119   16:30   38.7    87    8.0   101     12.9   813.1    0.00     219    49.4
 119   16:40   39.5    87    7.1    85     13.2   813.2    0.00     244    49.4
 119   16:50   40.1    86    5.4   108     10.4   813.2    0.00     273    49.4
 119   17:00   41.3    84    4.5   121      8.3   813.3    0.00     271    49.4
 119   17:10   41.8    82    4.8    97      7.9   813.4    0.00     290    49.3
 119   17:20   43.1    81    5.0    84      8.3   813.4    0.00     382    49.4
 119   17:30   42.9    81    4.5    85      8.7   813.5    0.00     113    49.4
 119   17:40   42.3    82    4.2    90      7.2   813.7    0.00      33    49.3
 119   17:50   41.7    83    3.4    92      5.5   813.7    0.00      26    49.4
 119   18:00   41.8    82    2.6    84      4.4   813.7    0.00      27    49.4
 119   18:10   42.1    82    1.3   120      3.7   813.8    0.00      16    49.4
 119   18:20   42.6    84    1.8   247      4.6   814.0    0.00      11    49.4
 119   18:30   42.6    85    3.4   222      7.2   814.1    0.00      15    49.4
 119   18:40   42.2    86    2.9   228      6.5   814.2    0.00      13    49.4
 119   18:50   41.8    86    2.1   240      3.9   814.3    0.00       7    49.4
 119   19:00   41.9    86    2.9   220      6.6   814.3    0.00       8    49.4
 119   19:10   41.8    86    3.6   214      6.6   814.3    0.00       3    49.4
 119   19:20   41.7    87    2.3   271      5.0   814.6    0.00       1    49.4
 119   19:30   41.4    87    4.2   293      9.8   815.0    0.01       0    49.4
 119   19:40   40.5    88    2.1   219      4.7   815.1    0.02       0    49.3
 119   19:50   39.6    89    4.0    76      5.3   815.2    0.02       0    49.3
 119   20:00   39.0    90    3.6    82      6.1   815.3    0.01       0    49.2
 119   20:10   38.9    90    1.6   136      4.4   815.3    0.00       0    49.2
 119   20:20   39.0    90    0.4    11      1.2   815.5    0.00       0    49.2
 119   20:30   39.3    89    1.2    60      4.1   815.6    0.00       0    49.2
 119   20:40   39.2    90    2.4   110      4.5   815.7    0.01       0    49.1
 119   20:50   39.4    90    1.1   193      2.4   815.7    0.00       0    49.1
 119   21:00   39.6    90    1.6   240      4.0   815.9    0.00       0    49.1
 119   21:10   39.2    91    2.5   268      4.2   816.0    0.00       0    49.0
 119   21:20   39.5    91    2.9   293      5.9   816.1    0.02       0    49.0
 119   21:30   39.4    92    2.1   256      4.7   816.1    0.00       0    49.0
 119   21:40   39.4    92    1.0   282      2.6   816.2    0.00       0    49.0
 119   21:50   39.5    92    1.1   245      2.7   816.2    0.00       0    48.9
 119   22:00   39.7    92    0.9   197      2.4   816.2    0.00       0    48.9
 119   22:10   39.7    92    1.0   204      1.7   816.1    0.00       0    48.9
 119   22:20   39.6    92    0.4   164      1.2   816.1    0.00       0    48.8
 119   22:30   39.6    92    0.6   213      1.6   816.1    0.00       0    48.8
 119   22:40   39.8    91    0.6   212      2.2   816.1    0.01       0    48.8
 119   22:50   39.7    91    2.1   298      3.3   816.2    0.00       0    48.7
 119   23:00   39.7    91    1.9   268      3.4   816.2    0.00       0    48.7
 119   23:10   39.8    91    1.7   267      3.6   816.3    0.00       0    48.7
 119   23:20   39.9    91    1.1   240      2.3   816.3    0.00       0    48.7
 119   23:30   39.9    91    1.2   230      2.1   816.4    0.00       0    48.6

Return to Cedar City, Utah graphs page.


Western Regional Climate Center,wrcc@dri.edu